Latest Coastal Weather Observations for Wyndham Airport

IDD60701

Issued at 12:01 am CST Tuesday 31 May 2016 (issued every 10 minutes, with the page automatically refreshed every 10 minutes)

About coastal observations | Map of coastal stations | Coastal observations for NT | Marine services | Other Formats
Station Details ID: 001006 Name: WYNDHAM AERO Lat: -15.51 Lon: 128.15 Height: 3.8 m
Data from the previous 72 hours. | See also: Recent months at Wyndham Airport
Date/Time
CST
Temp

°C
Wind Pressure Rain
since 9am
mm
Weather Cloud Vis
km
Sea
Height
m
Swell
Dir
 
Speed
knots
Gust
knots
hPa Trend Height
m
Period
s
Dir
31/12:00am 26.3 ENE 5 6 1013.1 - 0.0 - - - - - - -
 
Date/Time
CST
Temp

°C
Wind Pressure Rain
since 9am
mm
Weather Cloud Vis
km
Sea
Height
m
Swell
Dir
 
Speed
knots
Gust
knots
hPa Trend Height
m
Period
s
Dir
30/11:30pm 26.4 CALM 0 0 1013.1 - 0.0 - - - - - - -
30/11:00pm 27.4 CALM 0 0 1013.2 - 0.0 - - - - - - -
30/10:30pm 28.1 CALM 0 0 1013.2 - 0.0 - - - - - - -
30/10:00pm 29.1 NW 6 8 1013.2 - 0.0 - - - - - - -
30/09:30pm 28.9 CALM 0 3 1013.1 - 0.0 - - - - - - -
30/09:00pm 29.3 NNE 8 10 1012.7 - 0.0 - - - - - - -
30/08:30pm 29.3 N 11 15 1012.2 - 0.0 - - - - - - -
30/08:00pm 29.5 N 11 15 1011.9 - 0.0 - - - - - - -
30/07:30pm 30.0 NNE 11 14 1011.7 - 0.0 - - - - - - -
30/07:00pm 30.6 N 12 18 1011.5 - 0.0 - - - - - - -
30/06:30pm 31.4 N 13 17 1011.1 - 0.0 - - - - - - -
30/06:00pm 32.7 N 11 14 1010.6 - 0.0 - - - - - - -
30/05:30pm 33.7 N 10 13 1010.2 - 0.0 - - - - - - -
30/05:00pm 34.0 NNW 12 16 1009.8 - 0.0 - - - - - - -
30/04:30pm 34.5 NNW 11 15 1009.5 - 0.0 - - - - - - -
30/04:00pm 34.9 NNW 9 14 1009.6 - 0.0 - - - - - - -
30/03:30pm 35.7 NNW 8 12 1009.7 - 0.0 - - - - - - -
30/03:00pm 35.6 N 8 12 1010.0 - 0.0 - - - - - - -
30/02:30pm 35.1 NW 7 12 1010.1 - 0.0 - - - - - - -
30/02:00pm 34.6 N 8 14 1010.6 - 0.0 - - - - - - -
30/01:30pm 33.8 NNW 8 13 1011.1 - 0.0 - - - - - - -
30/01:00pm 34.5 NW 5 8 1011.6 - 0.0 - - - - - - -
30/12:30pm 34.2 WNW 6 13 1012.0 - 0.0 - - - - - - -
30/12:00pm 32.9 NW 6 9 1012.5 - 0.0 - - - - - - -
30/11:30am 32.7 WNW 7 11 1012.7 - 0.0 - - - - - - -
30/11:00am 31.5 NW 5 8 1013.2 - 0.0 - - - - - - -
30/10:30am 30.8 WSW 4 6 1013.5 - 0.0 - - - - - - -
30/10:00am 30.0 W 3 5 1013.7 - 0.0 - - - - - - -
30/09:30am 29.4 WNW 2 4 1013.7 - 0.0 - - - - - - -
30/09:00am 28.0 E 4 5 1013.5 - 0.0 - - - - - - -
30/08:30am 26.9 E 3 4 1013.4 - 0.0 - - - - - - -
30/08:00am 25.8 E 5 7 1013.1 - 0.0 - - - - - - -
30/07:30am 25.0 SE 6 8 1012.7 - 0.0 - - - - - - -
30/07:00am 24.3 ESE 6 7 1012.4 - 0.0 - - - - - - -
30/06:30am 24.4 ENE 5 6 1012.0 - 0.0 - - - - - - -
30/06:00am 24.7 E 5 6 1011.8 - 0.0 - - - - - - -
30/05:30am 25.1 E 6 7 1011.7 - 0.0 - - - - - - -
30/05:00am 24.8 E 7 7 1011.6 - 0.0 - - - - - - -
30/04:30am 25.0 ENE 4 5 1011.2 - 0.0 - - - - - - -
30/04:00am 25.2 E 5 5 1011.3 - 0.0 - - - - - - -
30/03:30am 25.3 E 5 6 1011.3 - 0.0 - - - - - - -
30/03:00am 25.2 E 5 6 1011.3 - 0.0 - - - - - - -
30/02:30am 25.5 ENE 6 8 1011.5 - 0.0 - - - - - - -
30/02:00am 25.4 ESE 6 7 1011.5 - 0.0 - - - - - - -
30/01:30am 25.9 ENE 4 6 1011.6 - 0.0 - - - - - - -
30/01:00am 26.4 E 4 5 1011.6 - 0.0 - - - - - - -
30/12:30am 26.8 ESE 4 4 1011.6 - 0.0 - - - - - - -
30/12:00am 29.0 WSW 4 5 1011.7 - 0.0 - - - - - - -
 
Date/Time
CST
Temp

°C
Wind Pressure Rain
since 9am
mm
Weather Cloud Vis
km
Sea
Height
m
Swell
Dir
 
Speed
knots
Gust
knots
hPa Trend Height
m
Period
s
Dir
29/11:30pm 29.9 N 1 5 1011.8 - 0.0 - - - - - - -
29/11:00pm 30.7 N 3 7 1012.1 - 0.0 - - - - - - -
29/10:30pm 29.7 S 2 5 1012.2 - 0.0 - - - - - - -
29/10:00pm 31.0 N 10 14 1011.9 - 0.0 - - - - - - -
29/09:30pm 30.9 N 10 12 1011.8 - 0.0 - - - - - - -
29/09:00pm 31.0 N 9 13 1011.6 - 0.0 - - - - - - -
29/08:30pm 31.6 N 10 15 1011.5 - 0.0 - - - - - - -
29/08:00pm 31.7 N 10 14 1011.1 - 0.0 - - - - - - -
29/07:30pm 32.1 N 11 15 1010.8 - 0.0 - - - - - - -
29/07:00pm 32.3 N 9 12 1010.6 - 0.0 - - - - - - -
29/06:30pm 33.2 NNW 6 9 1010.1 - 0.0 - - - - - - -
29/06:00pm 34.7 N 4 6 1009.6 - 0.0 - - - - - - -
29/05:30pm 35.7 NNE 5 7 1009.3 - 0.0 - - - - - - -
29/05:00pm 35.9 SSW 3 6 1009.1 - 0.0 - - - - - - -
29/04:30pm 36.3 NNE 3 8 1009.1 - 0.0 - - - - - - -
29/04:00pm 36.6 WSW 3 6 1009.1 - 0.0 - - - - - - -
29/03:30pm 36.6 W 4 10 1009.2 - 0.0 - - - - - - -
29/03:00pm 35.5 NW 6 9 1009.5 - 0.0 - - - - - - -
29/02:30pm 35.6 NNW 5 8 1009.9 - 0.0 - - - - - - -
29/02:00pm 35.7 NW 4 8 1010.4 - 0.0 - - - - - - -
29/01:30pm 34.5 N 6 7 1010.8 - 0.0 - - - - - - -
29/01:00pm 34.5 CALM 0 3 1011.2 - 0.0 - - - - - - -
29/12:30pm 34.4 SW 6 8 1011.8 - 0.0 - - - - - - -
29/12:00pm 34.6 E 4 7 1012.2 - 0.0 - - - - - - -
29/11:30am 33.1 SE 3 6 1012.6 - 0.0 - - - - - - -
29/11:00am 32.1 NE 3 7 1012.9 - 0.0 - - - - - - -
29/10:30am 30.6 S 3 7 1013.5 - 0.0 - - - - - - -
29/10:00am 29.6 WSW 5 6 1013.4 - 0.0 - - - - - - -
29/09:30am 28.5 WSW 3 5 1013.3 - 0.0 - - - - - - -
29/09:00am 27.9 W 1 3 1013.0 - 0.0 - - - - - - -
29/08:30am 26.5 ESE 5 7 1012.7 - 0.0 - - - - - - -
29/08:00am 24.8 E 6 7 1012.2 - 0.0 - - - - - - -
29/07:30am 23.6 E 6 6 1011.8 - 0.0 - - - - - - -
29/07:00am 23.7 ESE 5 5 1011.3 - 0.0 - - - - - - -
29/06:30am 23.6 E 3 4 1011.0 - 0.0 - - - - - - -
29/06:00am 23.8 E 3 4 1010.7 - 0.0 - - - - - - -
29/05:30am 23.5 E 5 5 1010.4 - 0.0 - - - - - - -
29/05:00am 23.3 ESE 5 6 1010.5 - 0.0 - - - - - - -
29/04:30am 24.3 CALM 0 3 1010.4 - 0.0 - - - - - - -
29/04:00am 24.4 CALM 0 0 1010.3 - 0.0 - - - - - - -
29/03:30am 24.3 ESE 1 5 1010.2 - 0.0 - - - - - - -
29/03:00am 24.2 CALM 0 0 1010.3 - 0.0 - - - - - - -
29/02:30am 25.2 NNE 3 4 1010.6 - 0.0 - - - - - - -
29/02:00am 25.5 E 4 5 1010.8 - 0.0 - - - - - - -
29/01:30am 26.2 SE 7 8 1011.2 - 0.0 - - - - - - -
29/01:00am 25.8 E 5 6 1011.2 - 0.0 - - - - - - -
29/12:30am 26.4 ENE 3 4 1011.2 - 0.0 - - - - - - -
29/12:00am 27.3 E 7 8 1011.4 - 0.0 - - - - - - -
 
Date/Time
CST
Temp

°C
Wind Pressure Rain
since 9am
mm
Weather Cloud Vis
km
Sea
Height
m
Swell
Dir
 
Speed
knots
Gust
knots
hPa Trend Height
m
Period
s
Dir
28/11:30pm 27.5 ESE 8 10 1011.5 - 0.0 - - - - - - -
28/11:00pm 27.6 ESE 9 11 1011.5 - 0.0 - - - - - - -
28/10:30pm 28.3 SE 9 11 1011.5 - 0.0 - - - - - - -
28/10:00pm 29.0 E 8 13 1011.4 - 0.0 - - - - - - -
28/09:30pm 30.2 NW 4 6 1011.2 - 0.0 - - - - - - -
28/09:00pm 30.6 NNW 7 10 1010.9 - 0.0 - - - - - - -
28/08:30pm 31.0 N 10 12 1010.5 - 0.0 - - - - - - -
28/08:00pm 31.1 N 8 11 1010.2 - 0.0 - - - - - - -
28/07:30pm 31.4 N 8 11 1009.9 - 0.0 - - - - - - -
28/07:00pm 31.9 N 6 9 1009.7 - 0.0 - - - - - - -
28/06:30pm 33.1 N 4 5 1009.4 - 0.0 - - - - - - -
28/06:00pm 35.3 NNW 5 7 1009.2 - 0.0 - - - - - - -
28/05:30pm 36.3 WNW 7 10 1009.0 - 0.0 - - - - - - -
28/05:00pm 36.6 NNW 7 10 1008.9 - 0.0 - - - - - - -
28/04:30pm 37.2 N 5 13 1008.8 - 0.0 - - - - - - -
28/04:00pm 36.8 NNE 6 11 1008.8 - 0.0 - - - - - - -
28/03:30pm 36.7 N 7 10 1009.0 - 0.0 - - - - - - -
28/03:00pm 37.3 NW 8 15 1009.2 - 0.0 - - - - - - -
28/02:30pm 36.3 WSW 5 8 1009.6 - 0.0 - - - - - - -
28/02:00pm 36.2 NW 5 8 1010.1 - 0.0 - - - - - - -
28/01:30pm 35.6 W 5 11 1010.6 - 0.0 - - - - - - -
28/01:00pm 34.9 W 5 9 1011.0 - 0.0 - - - - - - -
28/12:30pm 34.7 SW 4 7 1011.6 - 0.0 - - - - - - -
28/12:00pm 34.5 NNW 3 6 1012.1 - 0.0 - - - - - - -
28/11:30am 33.6 NW 3 7 1012.7 - 0.0 - - - - - - -
28/11:00am 32.3 WSW 3 6 1013.2 - 0.0 - - - - - - -
28/10:30am 31.5 WSW 4 7 1013.4 - 0.0 - - - - - - -
28/10:00am 30.9 SW 4 6 1013.5 - 0.0 - - - - - - -
28/09:30am 29.7 W 1 4 1013.6 - 0.0 - - - - - - -
28/09:00am 28.9 CALM 0 0 1013.6 - 0.0 - - - - - - -
28/08:30am 27.4 WSW 3 4 1013.4 - 0.0 - - - - - - -
28/08:00am 26.8 CALM 0 0 1013.2 - 0.0 - - - - - - -
28/07:30am 25.6 CALM 0 0 1012.9 - 0.0 - - - - - - -
28/07:00am 25.1 NW 5 6 1012.5 - 0.0 - - - - - - -
28/06:30am 25.0 N 4 6 1012.4 - 0.0 - - - - - - -
28/06:00am 25.4 NW 3 4 1012.3 - 0.0 - - - - - - -
28/05:30am 25.6 WNW 5 6 1012.1 - 0.0 - - - - - - -
28/05:00am 25.9 WSW 5 7 1012.2 - 0.0 - - - - - - -
28/04:30am 25.2 NW 2 4 1011.8 - 0.0 - - - - - - -
28/04:00am 25.9 SW 5 6 1011.8 - 0.0 - - - - - - -
28/03:30am 26.1 SSW 7 8 1011.9 - 0.0 - - - - - - -
28/03:00am 26.0 S 4 5 1011.9 - 0.0 - - - - - - -
28/02:30am 25.9 WSW 3 3 1012.0 - 0.0 - - - - - - -
28/02:00am 26.2 CALM 0 0 1011.9 - 0.0 - - - - - - -

Other Formats:

Comma delimited format used in spreadsheet applications
http://www.bom.gov.au/fwo/IDD60701/IDD60701.95214.axf

JavaScript Object Notation format (JSON) in row-major order
http://www.bom.gov.au/fwo/IDD60701/IDD60701.95214.json